Metar Aviation Weather Data SAEZ

19°C Temp
11°C Dewpoint
% Humidity
Temperature
23 KM/H
14 MPH
12 KTS
250°
West South
West

Wind Speed
Partly Cloudy
Conditions
Pressure 1014.92 (hPa) - 29.97 (in)
Visibility 6.2 (mi) - 10.0 (km)

Current Conditions
SAEZ
Metar :SAEZ 231700Z 25012KT 210V290 9999 FEW044 19/11 Q1015 NOSIG
Wed 23rd October 14:00 pm

  Metar Aviation API Data Provided by https://www.checkwx.com/ PHP scripts by weather34.com ©2019